createdAt,value
2024-01-16T00:02:11.705Z,141675.03
2024-01-16T00:04:39.015Z,141684.63
2024-01-16T00:07:06.353Z,141694.25
2024-01-16T00:09:36.578Z,141682.25
2024-01-16T00:12:05.005Z,141683.44
2024-01-16T00:14:36.541Z,141679.84
2024-01-16T00:17:04.241Z,141659.47
2024-01-16T00:19:31.897Z,141666.66
2024-01-16T00:21:59.024Z,141654.69
2024-01-16T00:24:26.139Z,141669.06
2024-01-16T00:26:53.256Z,141691.84
2024-01-16T00:29:20.536Z,141697.81
2024-01-16T00:31:47.597Z,141696.63
2024-01-16T00:34:15.076Z,141690.66
2024-01-16T00:36:42.162Z,141688.22
2024-01-16T00:39:09.351Z,141696.63
2024-01-16T00:41:36.455Z,141697.81
2024-01-16T00:44:04.156Z,141685.84
2024-01-16T00:46:31.790Z,141687.06
2024-01-16T00:48:58.915Z,141685.84
2024-01-16T00:51:26.632Z,141670.25
2024-01-16T00:53:53.716Z,141709.81
2024-01-16T00:56:20.842Z,141701.44
2024-01-16T00:58:47.899Z,141684.63
2024-01-16T01:01:15.015Z,141685.84
2024-01-16T01:03:42.085Z,141685.84
2024-01-16T01:06:09.706Z,141705.03
2024-01-16T01:08:36.838Z,141689.44
2024-01-16T01:11:04.139Z,141702.63
2024-01-16T01:13:31.265Z,141705.03
2024-01-16T01:15:58.401Z,141618.72
2024-01-16T01:18:25.578Z,141714.63
2024-01-16T01:20:52.906Z,141718.22
2024-01-16T01:23:20.027Z,141695.44
2024-01-16T01:25:47.130Z,141695.44
2024-01-16T01:28:14.273Z,141700.25
2024-01-16T01:30:41.384Z,141707.41
2024-01-16T01:33:08.586Z,141713.44
2024-01-16T01:35:35.776Z,141693.03
2024-01-16T01:38:03.171Z,141678.66
2024-01-16T01:40:30.222Z,141678.66
2024-01-16T01:42:57.240Z,141663.09
2024-01-16T01:45:24.243Z,141693.03
2024-01-16T01:47:51.545Z,141721.84
2024-01-16T01:50:19.464Z,141708.66
2024-01-16T01:52:46.801Z,141702.63
2024-01-16T01:55:15.128Z,141705.03
2024-01-16T01:57:44.230Z,141642.69
2024-01-16T02:00:12.202Z,141714.63
2024-01-16T02:02:42.790Z,141733.78
2024-01-16T02:05:10.991Z,141729.00
2024-01-16T02:07:39.260Z,141725.41
2024-01-16T02:10:07.239Z,141718.22
2024-01-16T02:12:34.417Z,141714.63
2024-01-16T02:15:01.603Z,141607.91
2024-01-16T02:17:28.715Z,141714.63
2024-01-16T02:19:55.805Z,141690.66
2024-01-16T02:22:29.362Z,141588.75
2024-01-16T02:24:57.097Z,141709.81
2024-01-16T02:27:24.125Z,141719.41
2024-01-16T02:29:51.219Z,141726.63
2024-01-16T02:32:18.489Z,141738.59
2024-01-16T02:34:45.608Z,141742.19
2024-01-16T02:37:12.743Z,141730.25
2024-01-16T02:39:39.784Z,141695.44
2024-01-16T02:42:07.366Z,141681.06
2024-01-16T02:44:34.472Z,141705.03
2024-01-16T02:47:02.048Z,141619.91
2024-01-16T02:49:29.271Z,141693.03
2024-01-16T02:51:56.326Z,141687.06
2024-01-16T02:54:23.346Z,141693.03
2024-01-16T02:56:50.965Z,141675.03
2024-01-16T02:59:18.227Z,141685.84
2024-01-16T03:01:45.560Z,141701.44
2024-01-16T03:04:12.705Z,141707.41
2024-01-16T03:06:40.376Z,141724.22
2024-01-16T03:09:07.700Z,141721.84
2024-01-16T03:11:34.973Z,141630.69
2024-01-16T03:14:02.651Z,141708.66
2024-01-16T03:16:30.004Z,141671.44
2024-01-16T03:18:57.115Z,141664.28
2024-01-16T03:21:24.314Z,141678.66
2024-01-16T03:23:51.941Z,141700.25
2024-01-16T03:26:19.265Z,141695.44
2024-01-16T03:28:46.603Z,141670.25
2024-01-16T03:31:16.677Z,141665.47
2024-01-16T03:33:44.810Z,141664.28
2024-01-16T03:36:13.921Z,141635.47
2024-01-16T03:38:41.408Z,141677.47
2024-01-16T03:41:09.050Z,141687.06
2024-01-16T03:43:36.598Z,141699.06
2024-01-16T03:46:04.283Z,141621.09
2024-01-16T03:48:31.578Z,141560.00
2024-01-16T03:50:58.889Z,141683.44
2024-01-16T03:53:26.054Z,141683.44
2024-01-16T03:55:53.123Z,141687.06
2024-01-16T03:58:20.488Z,141709.81
2024-01-16T04:00:48.247Z,141688.22
2024-01-16T04:03:15.366Z,141636.69
2024-01-16T04:05:42.572Z,141655.88
2024-01-16T04:08:09.851Z,141681.06
2024-01-16T04:10:36.950Z,141699.06
2024-01-16T04:13:05.168Z,141702.63
2024-01-16T04:15:32.426Z,141664.28
2024-01-16T04:18:00.086Z,141696.63
2024-01-16T04:20:27.163Z,141657.06
2024-01-16T04:22:54.389Z,141695.44
2024-01-16T04:25:21.491Z,141693.03
2024-01-16T04:27:48.541Z,141653.44
2024-01-16T04:30:15.835Z,141661.84
2024-01-16T04:32:43.318Z,141677.47
2024-01-16T04:35:10.719Z,141664.28
2024-01-16T04:37:37.927Z,141681.06
2024-01-16T04:40:06.472Z,141707.41
2024-01-16T04:42:34.742Z,141604.34
2024-01-16T04:45:02.446Z,141624.69
2024-01-16T04:47:29.568Z,141671.44
2024-01-16T04:49:56.668Z,141684.63
2024-01-16T04:52:24.698Z,141684.63
2024-01-16T04:54:51.762Z,141667.88
2024-01-16T04:57:18.787Z,141712.25
2024-01-16T04:59:45.849Z,141672.66
2024-01-16T05:02:14.033Z,141693.03
2024-01-16T05:04:41.090Z,141683.44
2024-01-16T05:07:08.155Z,141587.56
2024-01-16T05:09:35.177Z,141688.22
2024-01-16T05:12:02.630Z,141664.28
2024-01-16T05:14:30.333Z,141678.66
2024-01-16T05:16:57.451Z,141670.25
2024-01-16T05:19:24.611Z,141635.47
2024-01-16T05:21:51.744Z,141657.06
2024-01-16T05:24:18.772Z,141676.28
2024-01-16T05:26:45.962Z,141599.50
2024-01-16T05:29:13.329Z,141664.28
2024-01-16T05:31:44.104Z,141648.66
2024-01-16T05:34:11.810Z,141681.06
2024-01-16T05:36:39.041Z,141604.34
2024-01-16T05:39:06.149Z,141637.88
2024-01-16T05:41:34.959Z,141654.69
2024-01-16T05:44:04.768Z,141653.44
2024-01-16T05:46:33.261Z,141652.25
2024-01-16T05:49:00.621Z,141657.06
2024-01-16T05:51:29.603Z,141657.06
2024-01-16T05:53:57.573Z,141683.44
2024-01-16T05:56:24.669Z,141691.84
2024-01-16T05:58:53.115Z,141707.41
2024-01-16T06:01:20.224Z,141685.84
2024-01-16T06:03:49.759Z,141640.31
2024-01-16T06:06:17.425Z,141575.56
2024-01-16T06:08:44.634Z,141681.06
2024-01-16T06:11:14.415Z,141676.28
2024-01-16T06:13:42.120Z,141658.28
2024-01-16T06:16:09.318Z,141649.88
2024-01-16T06:18:37.008Z,141627.13
2024-01-16T06:21:04.727Z,141658.28
2024-01-16T06:23:31.944Z,141647.47
2024-01-16T06:26:01.152Z,141657.06
2024-01-16T06:28:28.771Z,141652.25
2024-01-16T06:30:55.927Z,141676.28
2024-01-16T06:33:23.228Z,141670.25
2024-01-16T06:35:53.986Z,141676.28
2024-01-16T06:38:21.733Z,141681.06
2024-01-16T06:40:48.932Z,141685.84
2024-01-16T06:43:16.811Z,141659.47
2024-01-16T06:45:44.374Z,141571.94
2024-01-16T06:48:11.966Z,141708.66
2024-01-16T06:50:39.696Z,141683.44
2024-01-16T06:53:06.716Z,141690.66
2024-01-16T06:55:33.776Z,141652.25
2024-01-16T06:58:00.886Z,141659.47
2024-01-16T07:00:28.678Z,141641.50
2024-01-16T07:02:56.011Z,141681.06
2024-01-16T07:05:23.382Z,141673.84
2024-01-16T07:07:50.553Z,141681.06
2024-01-16T07:10:23.016Z,141684.63
2024-01-16T07:12:50.666Z,141667.88
2024-01-16T07:15:17.893Z,141652.25
2024-01-16T07:17:45.236Z,141683.44
2024-01-16T07:20:12.667Z,141684.63
2024-01-16T07:22:42.905Z,141664.28
2024-01-16T07:25:10.307Z,141670.25
2024-01-16T07:27:37.718Z,141616.31
2024-01-16T07:30:08.424Z,141673.84
2024-01-16T07:32:36.074Z,141610.31
2024-01-16T07:35:04.147Z,141666.66
2024-01-16T07:37:31.459Z,141654.69
2024-01-16T07:39:58.476Z,141679.84
2024-01-16T07:42:26.011Z,141582.75
2024-01-16T07:44:54.068Z,141695.44
2024-01-16T07:47:21.183Z,141709.81
2024-01-16T07:49:48.427Z,141664.28
2024-01-16T07:52:15.546Z,141681.06
2024-01-16T07:54:42.618Z,141652.25
2024-01-16T07:57:09.662Z,141655.88
2024-01-16T07:59:36.791Z,141671.44
2024-01-16T08:02:03.917Z,141669.06
2024-01-16T08:04:30.988Z,141677.47
2024-01-16T08:06:58.199Z,141664.28
2024-01-16T08:09:26.259Z,141664.28
2024-01-16T08:11:53.332Z,141676.28
2024-01-16T08:14:20.572Z,141685.84
2024-01-16T08:16:47.668Z,141714.63
2024-01-16T08:19:15.614Z,141707.41
2024-01-16T08:21:42.863Z,141729.00
2024-01-16T08:24:09.931Z,141707.41
2024-01-16T08:26:36.985Z,141707.41
2024-01-16T08:29:04.040Z,141707.41
2024-01-16T08:31:31.069Z,141731.41
2024-01-16T08:33:58.667Z,141729.00
2024-01-16T08:36:25.884Z,141731.41
2024-01-16T08:38:53.662Z,141789.00
2024-01-16T08:41:21.289Z,141800.97
2024-01-16T08:43:48.707Z,141805.75
2024-01-16T08:46:16.430Z,141759.00
2024-01-16T08:48:43.706Z,141748.22
2024-01-16T08:51:15.873Z,141757.81
2024-01-16T08:53:43.345Z,141760.19
2024-01-16T08:56:10.833Z,141755.41
2024-01-16T08:58:39.379Z,141714.63
2024-01-16T09:01:06.807Z,141750.59
2024-01-16T09:03:35.199Z,141764.97
2024-01-16T09:06:04.085Z,141730.25
2024-01-16T09:08:31.413Z,141743.38
2024-01-16T09:10:58.602Z,141760.19
2024-01-16T09:13:25.652Z,141733.78
2024-01-16T09:15:52.740Z,141750.59
2024-01-16T09:18:20.531Z,141755.41
2024-01-16T09:20:48.548Z,141753.03
2024-01-16T09:23:15.693Z,141773.38
2024-01-16T09:25:45.395Z,141730.25
2024-01-16T09:28:13.506Z,141743.38
2024-01-16T09:30:40.546Z,141790.19
2024-01-16T09:33:08.303Z,141805.75
2024-01-16T09:35:35.774Z,141812.97
2024-01-16T09:38:03.638Z,141852.59
2024-01-16T09:40:30.694Z,141841.75
2024-01-16T09:42:58.359Z,141938.94
2024-01-16T09:45:26.166Z,141948.53
2024-01-16T09:47:54.456Z,141968.94
2024-01-16T09:50:22.509Z,141756.59
2024-01-16T09:52:50.334Z,141976.13
2024-01-16T09:55:17.557Z,141985.72
2024-01-16T09:57:47.299Z,142009.75
2024-01-16T10:00:16.541Z,141919.72
2024-01-16T10:02:44.115Z,141984.53
2024-01-16T10:05:12.578Z,141985.72
2024-01-16T10:07:41.621Z,141942.53
2024-01-16T10:10:19.522Z,141966.53
2024-01-16T10:12:52.079Z,141956.94
2024-01-16T10:15:21.271Z,141871.75
2024-01-16T10:17:48.387Z,141949.72
2024-01-16T10:20:18.187Z,141923.28
2024-01-16T10:22:55.455Z,141935.31
2024-01-16T10:25:23.709Z,141983.34
2024-01-16T10:28:04.561Z,142042.16
2024-01-16T10:30:31.934Z,142027.75
2024-01-16T10:33:14.212Z,142022.97
2024-01-16T10:35:42.151Z,141997.75
2024-01-16T10:38:09.203Z,142028.94
2024-01-16T10:40:36.325Z,141994.13
2024-01-16T10:43:06.566Z,141914.94
2024-01-16T10:45:34.688Z,142021.72
2024-01-16T10:48:06.934Z,141985.72
2024-01-16T10:50:36.427Z,142012.13
2024-01-16T10:53:08.548Z,142043.34
2024-01-16T10:55:49.080Z,142036.16
2024-01-16T10:58:17.925Z,141998.94
2024-01-16T11:00:52.871Z,141976.13
2024-01-16T11:03:28.636Z,141827.38
2024-01-16T11:05:59.161Z,141930.50
2024-01-16T11:08:31.996Z,141918.50
2024-01-16T11:11:01.937Z,141825.00
2024-01-16T11:13:35.062Z,141817.78
2024-01-16T11:16:05.145Z,141796.16
2024-01-16T11:18:36.496Z,141781.78
2024-01-16T11:21:09.696Z,141840.56
2024-01-16T11:23:39.168Z,141825.00
2024-01-16T11:26:35.616Z,141858.56
2024-01-16T11:29:28.861Z,141863.34
2024-01-16T11:32:12.805Z,141893.31
2024-01-16T11:34:45.216Z,141941.31
2024-01-16T11:37:13.431Z,141848.97
2024-01-16T11:39:41.740Z,141990.50
2024-01-16T11:42:11.908Z,141980.91
2024-01-16T11:44:55.277Z,141978.53
2024-01-16T11:47:24.695Z,142013.31
2024-01-16T11:50:08.533Z,142135.84
2024-01-16T11:52:45.924Z,142180.25
2024-01-16T11:55:36.599Z,142134.59
2024-01-16T11:58:12.632Z,142165.84
2024-01-16T12:00:42.290Z,142141.81
2024-01-16T12:03:11.761Z,142062.53
2024-01-16T12:05:39.030Z,142144.19
2024-01-16T12:08:07.290Z,142110.59
2024-01-16T12:10:47.262Z,142052.94
2024-01-16T12:13:14.455Z,142054.13
2024-01-16T12:15:42.704Z,142040.97
2024-01-16T12:18:19.582Z,142046.97
2024-01-16T12:20:54.528Z,142042.16
2024-01-16T12:23:23.165Z,141995.31
2024-01-16T12:26:03.712Z,141971.31
2024-01-16T12:28:33.705Z,141973.75
2024-01-16T12:31:02.411Z,141992.94
2024-01-16T12:33:30.329Z,142001.34
2024-01-16T12:36:07.224Z,142012.13
2024-01-16T12:38:34.689Z,141973.75
2024-01-16T12:41:03.583Z,141935.31
2024-01-16T12:43:33.013Z,142000.16
2024-01-16T12:46:00.358Z,142084.16
2024-01-16T12:48:28.341Z,142173.06
2024-01-16T12:51:06.285Z,142228.31
2024-01-16T12:53:35.360Z,142302.81
2024-01-16T12:56:04.534Z,142313.63
2024-01-16T12:58:36.247Z,142310.00
2024-01-16T13:01:31.866Z,142218.69
2024-01-16T13:04:06.159Z,142341.25
2024-01-16T13:06:33.560Z,142278.75
2024-01-16T13:09:20.221Z,142045.78
2024-01-16T13:11:48.350Z,142084.16
2024-01-16T13:14:15.473Z,142057.75
2024-01-16T13:16:42.564Z,142045.78
2024-01-16T13:19:11.985Z,142048.16
2024-01-16T13:21:39.181Z,142108.16
2024-01-16T13:24:07.245Z,142144.19
2024-01-16T13:26:34.313Z,142211.47
2024-01-16T13:29:01.732Z,142221.13
2024-01-16T13:31:28.886Z,142209.09
2024-01-16T13:33:57.697Z,142223.50
2024-01-16T13:36:46.470Z,142209.09
2024-01-16T13:39:14.162Z,142216.28
2024-01-16T13:41:43.593Z,142182.66
2024-01-16T13:44:10.685Z,142113.03
2024-01-16T13:49:08.991Z,142103.38
2024-01-16T13:51:36.395Z,142040.97
2024-01-16T13:54:04.524Z,142050.56
2024-01-16T13:56:48.739Z,142073.38
2024-01-16T13:59:19.062Z,142111.78
2024-01-16T14:01:46.282Z,142116.59
2024-01-16T14:04:13.343Z,142153.84
2024-01-16T14:06:56.215Z,142135.84
2024-01-16T14:09:28.441Z,142122.63
2024-01-16T14:11:55.558Z,142096.19
2024-01-16T14:14:22.697Z,142055.38
2024-01-16T14:16:54.629Z,142085.38
2024-01-16T14:19:29.095Z,142062.53
2024-01-16T14:21:56.266Z,142084.16
2024-01-16T14:24:23.297Z,142069.78
2024-01-16T14:26:50.545Z,142129.81
2024-01-16T14:29:17.830Z,142151.44
2024-01-16T14:31:45.146Z,142101.00
2024-01-16T14:34:14.392Z,142082.97
2024-01-16T14:36:42.468Z,142052.94
2024-01-16T14:39:14.346Z,142055.38
2024-01-16T14:41:42.523Z,142040.97
2024-01-16T14:44:10.966Z,142009.75
2024-01-16T14:46:38.160Z,141964.16
2024-01-16T14:49:05.506Z,141802.19
2024-01-16T14:51:33.556Z,141839.38
2024-01-16T14:54:02.894Z,141865.78
2024-01-16T14:56:31.378Z,141838.19
2024-01-16T14:58:58.834Z,141804.56
2024-01-16T15:01:26.144Z,141777.00
2024-01-16T15:03:54.712Z,141741.00
2024-01-16T15:06:22.563Z,141721.84
2024-01-16T15:08:49.733Z,141687.06
2024-01-16T15:11:18.204Z,141669.06
2024-01-16T15:13:46.036Z,141621.09
2024-01-16T15:16:13.257Z,141642.69
2024-01-16T15:18:40.560Z,141613.94
2024-01-16T15:21:08.043Z,141630.69
2024-01-16T15:23:35.156Z,141606.72
2024-01-16T15:26:04.357Z,141583.94
2024-01-16T15:28:32.838Z,141549.19
2024-01-16T15:31:07.383Z,141515.66
2024-01-16T15:33:37.984Z,141391.03
2024-01-16T15:36:05.544Z,141486.84
2024-01-16T15:38:32.908Z,141466.50
2024-01-16T15:41:00.107Z,141385.06
2024-01-16T15:43:28.005Z,141452.16
2024-01-16T15:45:55.843Z,141447.34
2024-01-16T15:48:22.909Z,141455.72
2024-01-16T15:50:50.083Z,141432.94
2024-01-16T15:53:17.669Z,141400.63
2024-01-16T15:55:45.093Z,141345.53
2024-01-16T15:58:13.288Z,141374.25
2024-01-16T16:00:40.529Z,141367.09
2024-01-16T16:03:08.051Z,141335.97
2024-01-16T16:05:35.348Z,141284.50
2024-01-16T16:08:02.603Z,141297.66
2024-01-16T16:10:29.675Z,141283.31
2024-01-16T16:12:56.701Z,141279.72
2024-01-16T16:15:23.817Z,141264.16
2024-01-16T16:17:53.441Z,141227.06
2024-01-16T16:20:25.496Z,141247.41
2024-01-16T16:22:54.403Z,141213.91
2024-01-16T16:25:21.518Z,141216.28
2024-01-16T16:27:48.744Z,141197.13
2024-01-16T16:30:16.115Z,141182.78
2024-01-16T16:32:43.833Z,141164.81
2024-01-16T16:35:11.435Z,141140.88
2024-01-16T16:37:38.584Z,141134.91
2024-01-16T16:40:07.053Z,141133.72
2024-01-16T16:42:34.130Z,141125.31
2024-01-16T16:45:01.860Z,141118.13
2024-01-16T16:47:29.216Z,141104.97
2024-01-16T16:49:56.366Z,141096.59
2024-01-16T16:52:23.458Z,141089.44
2024-01-16T16:54:50.664Z,141099.00
2024-01-16T16:57:18.415Z,141096.59
2024-01-16T16:59:46.487Z,141065.53
2024-01-16T17:02:13.640Z,141032.00
2024-01-16T17:04:41.073Z,140907.63
2024-01-16T17:07:11.462Z,141034.41
2024-01-16T17:09:41.305Z,141003.31
2024-01-16T17:12:08.587Z,140981.78
2024-01-16T17:14:35.917Z,140969.81
2024-01-16T17:17:04.495Z,140978.19
2024-01-16T17:19:31.692Z,140975.81
2024-01-16T17:21:59.801Z,140972.22
2024-01-16T17:24:27.727Z,140953.06
2024-01-16T17:26:55.129Z,140930.34
2024-01-16T17:29:22.298Z,140910.03
2024-01-16T17:31:49.503Z,140962.66
2024-01-16T17:34:17.622Z,140924.38
2024-01-16T17:36:47.550Z,140918.41
2024-01-16T17:39:16.520Z,140904.06
2024-01-16T17:41:46.440Z,140907.63
2024-01-16T17:44:13.858Z,140893.28
2024-01-16T17:46:45.798Z,140894.47
2024-01-16T17:49:13.648Z,140875.34
2024-01-16T17:51:40.855Z,140866.97
2024-01-16T17:54:07.998Z,140866.97
2024-01-16T17:56:36.284Z,140862.22
2024-01-16T17:59:05.027Z,140853.88
2024-01-16T18:01:33.734Z,140857.47
2024-01-16T18:04:01.442Z,140849.09
2024-01-16T18:06:28.764Z,140802.50
2024-01-16T18:08:56.072Z,140830.00
2024-01-16T18:11:24.226Z,140782.16
2024-01-16T18:13:51.327Z,140818.03
2024-01-16T18:16:18.765Z,140663.91
2024-01-16T18:18:46.196Z,140754.69
2024-01-16T18:21:14.067Z,140775.03
2024-01-16T18:23:42.077Z,140742.78
2024-01-16T18:26:09.817Z,140739.19
2024-01-16T18:28:37.103Z,140709.31
2024-01-16T18:31:04.787Z,140692.56
2024-01-16T18:33:33.609Z,140704.53
2024-01-16T18:36:03.114Z,140708.13
2024-01-16T18:38:30.226Z,140677.06
2024-01-16T18:40:59.301Z,140659.13
2024-01-16T18:43:28.694Z,140644.81
2024-01-16T18:45:55.776Z,140637.63
2024-01-16T18:48:22.985Z,140692.56
2024-01-16T18:50:55.454Z,140649.59
2024-01-16T18:53:23.125Z,140629.28
2024-01-16T18:55:53.283Z,140544.50
2024-01-16T18:58:21.794Z,140630.50
2024-01-16T19:00:51.337Z,140624.50
2024-01-16T19:03:19.927Z,140616.13
2024-01-16T19:05:47.556Z,140585.06
2024-01-16T19:08:15.256Z,140582.72
2024-01-16T19:10:42.731Z,140549.25
2024-01-16T19:13:12.170Z,140490.78
2024-01-16T19:15:39.324Z,140540.94
2024-01-16T19:18:07.051Z,140506.31
2024-01-16T19:20:34.842Z,140518.22
2024-01-16T19:23:03.936Z,140517.03
2024-01-16T19:25:31.044Z,140587.47
2024-01-16T19:27:58.884Z,140439.50
2024-01-16T19:30:26.539Z,140502.72
2024-01-16T19:32:53.792Z,140472.91
2024-01-16T19:35:21.143Z,140468.13
2024-01-16T19:37:48.175Z,140461.00
2024-01-16T19:40:17.199Z,140397.75
2024-01-16T19:42:44.821Z,140458.59
2024-01-16T19:45:12.765Z,140500.31
2024-01-16T19:47:41.788Z,140501.53
2024-01-16T19:50:23.115Z,140511.09
2024-01-16T19:52:56.186Z,140456.22
2024-01-16T19:55:27.138Z,140434.75
2024-01-16T19:57:55.266Z,140415.66
2024-01-16T20:00:22.670Z,140367.91
2024-01-16T20:02:50.660Z,140317.81
2024-01-16T20:05:18.424Z,140344.06
2024-01-16T20:07:46.453Z,140315.41
2024-01-16T20:10:16.902Z,140314.25
2024-01-16T20:12:46.464Z,140298.72
2024-01-16T20:15:16.692Z,140283.22
2024-01-16T20:17:45.229Z,140198.56
2024-01-16T20:20:14.243Z,140255.81
2024-01-16T20:22:42.250Z,140241.50
2024-01-16T20:25:19.815Z,140234.34
2024-01-16T20:27:47.642Z,140239.09
2024-01-16T20:30:14.977Z,140141.38
2024-01-16T20:32:53.994Z,140212.84
2024-01-16T20:35:24.305Z,140229.56
2024-01-16T20:37:51.518Z,140253.41
2024-01-16T20:40:18.835Z,140274.88
2024-01-16T20:42:45.861Z,140265.34
2024-01-16T20:45:13.072Z,140279.63
2024-01-16T20:47:41.126Z,140241.50
2024-01-16T20:50:10.790Z,140203.31
2024-01-16T20:52:38.380Z,140088.94
2024-01-16T20:55:08.109Z,140203.31
2024-01-16T20:57:36.145Z,140146.13
2024-01-16T21:00:06.075Z,140205.72
2024-01-16T21:02:33.393Z,140179.50
2024-01-16T21:05:00.873Z,140142.56
2024-01-16T21:07:28.515Z,140143.78
2024-01-16T21:09:56.403Z,140146.13
2024-01-16T21:12:23.895Z,140123.50
2024-01-16T21:14:51.233Z,139586.66
2024-01-16T21:17:18.516Z,140091.31
2024-01-16T21:19:45.940Z,140115.16
2024-01-16T21:22:16.645Z,140121.13
2024-01-16T21:24:45.714Z,140119.91
2024-01-16T21:27:15.386Z,140127.09
2024-01-16T21:29:45.116Z,140119.91
2024-01-16T21:32:12.478Z,140161.63
2024-01-16T21:34:39.626Z,140131.84
2024-01-16T21:37:06.804Z,140098.50
2024-01-16T21:39:36.137Z,140077.03
2024-01-16T21:42:04.269Z,139903.13
2024-01-16T21:44:32.991Z,140018.66
2024-01-16T21:47:00.136Z,140094.91
2024-01-16T21:49:27.435Z,140088.94
2024-01-16T21:51:54.521Z,140104.44
2024-01-16T21:54:22.281Z,140098.50
2024-01-16T21:56:49.462Z,140057.97
2024-01-16T21:59:16.614Z,140062.75
2024-01-16T22:01:46.985Z,139994.81
2024-01-16T22:04:14.484Z,140048.41
2024-01-16T22:06:42.505Z,140038.88
2024-01-16T22:09:14.913Z,140019.84
2024-01-16T22:11:42.702Z,140012.66
2024-01-16T22:14:09.821Z,140006.72
2024-01-16T22:16:36.836Z,140003.16
2024-01-16T22:19:04.113Z,139984.09
2024-01-16T22:21:33.993Z,139982.91
2024-01-16T22:24:01.513Z,139851.94
2024-01-16T22:26:28.861Z,139941.19
2024-01-16T22:28:56.670Z,139993.63
2024-01-16T22:31:23.733Z,139975.75
2024-01-16T22:33:51.071Z,139965.03
2024-01-16T22:36:19.764Z,139969.81
2024-01-16T22:38:48.040Z,139965.03
2024-01-16T22:41:15.140Z,139941.19
2024-01-16T22:43:45.131Z,139918.56
2024-01-16T22:46:12.236Z,139922.16
2024-01-16T22:48:39.782Z,139909.06
2024-01-16T22:51:07.164Z,139929.31
2024-01-16T22:53:34.390Z,139878.09
2024-01-16T22:56:01.553Z,139826.97
2024-01-16T22:58:28.579Z,139895.94
2024-01-16T23:00:55.667Z,139892.38
2024-01-16T23:03:22.788Z,139880.50
2024-01-16T23:05:50.118Z,139868.56
2024-01-16T23:08:19.374Z,139878.09
2024-01-16T23:10:47.420Z,139860.28
2024-01-16T23:13:14.563Z,139846.00
2024-01-16T23:15:41.628Z,139863.84
2024-01-16T23:18:08.855Z,139776.97
2024-01-16T23:20:36.121Z,139832.91
2024-01-16T23:23:03.289Z,139835.31
2024-01-16T23:25:30.381Z,139824.56
2024-01-16T23:27:57.484Z,139811.47
2024-01-16T23:30:24.963Z,139874.50
2024-01-16T23:32:52.137Z,139853.16
2024-01-16T23:35:20.168Z,139819.81
2024-01-16T23:37:49.433Z,139841.25
2024-01-16T23:40:18.353Z,139793.59
2024-01-16T23:42:45.988Z,139769.81
2024-01-16T23:45:23.498Z,139782.91
2024-01-16T23:47:55.703Z,139788.84
2024-01-16T23:50:23.078Z,139817.44
2024-01-16T23:52:51.023Z,139806.69
2024-01-16T23:55:19.020Z,139805.53
2024-01-16T23:57:47.290Z,139843.63
